createdAt,value
2024-01-25T00:04:08.974Z,89.40
2024-01-25T00:10:02.640Z,93.90
2024-01-25T00:15:55.802Z,97.40
2024-01-25T00:21:50.516Z,99.90
2024-01-25T00:27:46.265Z,99.90
2024-01-25T00:33:39.796Z,99.90
2024-01-25T00:39:35.142Z,99.90
2024-01-25T00:45:28.981Z,99.90
2024-01-25T00:51:24.674Z,99.90
2024-01-25T00:57:20.175Z,99.90
2024-01-25T01:03:14.398Z,99.90
2024-01-25T01:09:07.687Z,99.90
2024-01-25T01:15:02.405Z,99.90
2024-01-25T01:20:55.783Z,99.90
2024-01-25T01:26:50.154Z,99.90
2024-01-25T01:32:45.271Z,99.90
2024-01-25T01:38:38.679Z,99.90
2024-01-25T01:44:32.000Z,99.90
2024-01-25T01:50:27.965Z,99.90
2024-01-25T01:56:21.903Z,99.90
2024-01-25T02:02:15.448Z,99.90
2024-01-25T02:08:11.374Z,99.90
2024-01-25T02:14:04.855Z,99.90
2024-01-25T02:19:58.558Z,99.90
2024-01-25T02:25:53.705Z,99.90
2024-01-25T02:31:47.287Z,99.90
2024-01-25T02:37:41.664Z,99.90
2024-01-25T02:43:36.296Z,99.90
2024-01-25T02:49:29.777Z,99.90
2024-01-25T02:55:23.576Z,99.90
2024-01-25T03:01:18.354Z,99.90
2024-01-25T03:07:11.978Z,99.90
2024-01-25T03:13:05.591Z,99.90
2024-01-25T03:19:00.207Z,99.90
2024-01-25T03:24:53.593Z,99.90
2024-01-25T03:30:46.862Z,99.90
2024-01-25T03:36:42.409Z,99.90
2024-01-25T03:42:35.799Z,99.90
2024-01-25T03:48:29.147Z,99.90
2024-01-25T03:54:23.872Z,99.90
2024-01-25T04:00:17.936Z,99.90
2024-01-25T04:06:11.283Z,99.90
2024-01-25T04:12:06.821Z,99.90
2024-01-25T04:18:00.368Z,99.90
2024-01-25T04:23:53.931Z,99.90
2024-01-25T04:29:49.085Z,99.90
2024-01-25T04:35:42.165Z,99.90
2024-01-25T04:41:35.473Z,99.90
2024-01-25T04:47:30.283Z,99.90
2024-01-25T04:53:23.823Z,99.90
2024-01-25T04:59:17.259Z,99.90
2024-01-25T05:05:12.117Z,99.90
2024-01-25T05:11:06.575Z,99.90
2024-01-25T05:17:01.143Z,99.90
2024-01-25T05:22:55.837Z,99.90
2024-01-25T05:28:49.231Z,99.90
2024-01-25T05:34:42.845Z,99.90
2024-01-25T05:40:37.541Z,99.90
2024-01-25T05:46:30.906Z,99.90
2024-01-25T05:52:25.185Z,99.90
2024-01-25T05:58:20.181Z,99.90
2024-01-25T06:04:13.374Z,99.90
2024-01-25T06:10:07.262Z,99.90
2024-01-25T06:16:01.981Z,99.90
2024-01-25T06:21:55.110Z,99.90
2024-01-25T06:27:48.660Z,99.90
2024-01-25T06:33:43.234Z,99.90
2024-01-25T06:39:36.720Z,99.90
2024-01-25T06:45:30.032Z,99.90
2024-01-25T06:51:24.698Z,99.90
2024-01-25T06:57:18.223Z,99.90
2024-01-25T07:03:11.587Z,99.90
2024-01-25T07:09:07.059Z,99.90
2024-01-25T07:15:00.551Z,99.90
2024-01-25T07:20:53.937Z,99.90
2024-01-25T07:26:48.286Z,99.90
2024-01-25T07:32:43.272Z,99.90
2024-01-25T07:38:36.638Z,99.90
2024-01-25T07:44:31.414Z,99.90
2024-01-25T07:50:24.899Z,99.90
2024-01-25T07:56:17.977Z,99.90
2024-01-25T08:02:12.726Z,99.90
2024-01-25T08:08:06.549Z,99.90
2024-01-25T08:13:59.964Z,99.90
2024-01-25T08:19:54.700Z,99.90
2024-01-25T08:25:48.070Z,99.90
2024-01-25T08:31:41.436Z,99.90
2024-01-25T08:37:37.656Z,99.90
2024-01-25T08:43:31.202Z,99.90
2024-01-25T08:49:24.700Z,99.90
2024-01-25T08:55:20.574Z,99.90
2024-01-25T09:01:13.979Z,99.90
2024-01-25T09:07:07.472Z,99.90
2024-01-25T09:13:02.345Z,99.90
2024-01-25T09:18:55.947Z,99.90
2024-01-25T09:24:49.600Z,99.90
2024-01-25T09:30:44.389Z,99.90
2024-01-25T09:36:37.513Z,99.90
2024-01-25T09:42:30.928Z,99.90
2024-01-25T09:48:26.260Z,99.90
2024-01-25T09:54:20.139Z,99.90
2024-01-25T10:00:15.259Z,99.90
2024-01-25T10:06:10.404Z,99.90
2024-01-25T10:12:10.770Z,99.90
2024-01-25T10:18:24.398Z,99.90
2024-01-25T10:24:25.184Z,99.90
2024-01-25T10:30:19.096Z,99.90
2024-01-25T10:36:14.441Z,99.90
2024-01-25T10:42:09.601Z,99.90
2024-01-25T10:48:03.432Z,99.90
2024-01-25T10:53:57.206Z,99.90
2024-01-25T10:59:52.483Z,99.90
2024-01-25T11:05:46.398Z,99.90
2024-01-25T11:11:39.794Z,99.90
2024-01-25T11:17:35.256Z,99.90
2024-01-25T11:23:34.537Z,99.90
2024-01-25T11:29:28.609Z,99.90
2024-01-25T11:35:26.214Z,99.90
2024-01-25T11:41:20.782Z,99.90
2024-01-25T11:47:14.189Z,99.90
2024-01-25T11:53:09.865Z,99.90
2024-01-25T11:59:04.665Z,99.90
2024-01-25T12:04:59.657Z,99.90
2024-01-25T12:11:05.297Z,99.90
2024-01-25T12:16:58.815Z,99.90
2024-01-25T12:22:52.634Z,99.90
2024-01-25T12:28:49.634Z,99.90
2024-01-25T12:34:45.560Z,99.90
2024-01-25T12:40:39.545Z,99.90
2024-01-25T12:46:34.336Z,99.90
2024-01-25T12:52:27.688Z,99.90
2024-01-25T12:58:21.163Z,99.90
2024-01-25T13:04:16.067Z,99.90
2024-01-25T13:10:12.614Z,99.90
2024-01-25T13:16:06.820Z,99.90
2024-01-25T13:22:01.329Z,99.90
2024-01-25T13:27:54.955Z,99.90
2024-01-25T13:33:48.921Z,99.90
2024-01-25T13:39:44.020Z,99.90
2024-01-25T13:45:37.392Z,99.90
2024-01-25T13:51:30.782Z,99.90
2024-01-25T13:57:25.680Z,99.90
2024-01-25T14:03:19.319Z,99.90
2024-01-25T14:09:13.117Z,99.90
2024-01-25T14:15:09.108Z,99.90
2024-01-25T14:21:02.611Z,99.90
2024-01-25T14:26:56.060Z,99.90
2024-01-25T14:32:50.933Z,99.90
2024-01-25T14:38:45.872Z,99.90
2024-01-25T14:44:39.316Z,99.90
2024-01-25T14:50:34.051Z,99.90
2024-01-25T14:56:27.326Z,99.90
2024-01-25T15:02:20.618Z,99.90
2024-01-25T15:08:15.055Z,99.90
2024-01-25T15:14:08.345Z,99.90
2024-01-25T15:20:01.981Z,99.90
2024-01-25T15:25:56.879Z,99.90
2024-01-25T15:31:50.370Z,89.90
2024-01-25T15:37:43.876Z,59.20
2024-01-25T15:43:38.502Z,30.60
2024-01-25T15:49:31.848Z,29.40
2024-01-25T15:55:25.673Z,70.00
2024-01-25T16:01:20.722Z,89.10
2024-01-25T16:07:14.238Z,96.60
2024-01-25T16:13:07.291Z,99.90
2024-01-25T16:19:05.385Z,99.90
2024-01-25T16:24:59.099Z,99.90
2024-01-25T16:30:52.198Z,99.90
2024-01-25T16:36:47.054Z,99.90
2024-01-25T16:42:40.419Z,99.90
2024-01-25T16:48:34.251Z,99.90
2024-01-25T16:54:29.124Z,99.90
2024-01-25T17:00:26.020Z,99.90
2024-01-25T17:06:19.818Z,99.90
2024-01-25T17:12:16.525Z,99.90
2024-01-25T17:18:09.651Z,99.90
2024-01-25T17:24:03.671Z,99.90
2024-01-25T17:29:58.215Z,99.90
2024-01-25T17:35:51.652Z,99.90
2024-01-25T17:41:45.111Z,99.90
2024-01-25T17:47:39.789Z,99.90
2024-01-25T17:53:33.131Z,99.90
2024-01-25T17:59:27.427Z,99.90
2024-01-25T18:05:22.132Z,99.90
2024-01-25T18:11:17.066Z,99.90
2024-01-25T18:17:13.023Z,99.90
2024-01-25T18:23:07.394Z,99.90
2024-01-25T18:29:00.690Z,99.90
2024-01-25T18:34:54.720Z,99.90
2024-01-25T18:40:49.373Z,99.90
2024-01-25T18:46:42.711Z,99.90
2024-01-25T18:52:36.532Z,99.90
2024-01-25T18:58:31.714Z,99.90
2024-01-25T19:04:25.654Z,99.90
2024-01-25T19:10:19.130Z,99.90
2024-01-25T19:16:13.875Z,99.90
2024-01-25T19:22:08.499Z,99.90
2024-01-25T19:28:02.038Z,99.90
2024-01-25T19:33:56.785Z,99.90
2024-01-25T19:39:49.837Z,99.90
2024-01-25T19:45:43.528Z,99.90
2024-01-25T19:51:37.994Z,99.90
2024-01-25T19:57:31.895Z,99.90
2024-01-25T20:03:26.561Z,99.90
2024-01-25T20:09:21.312Z,99.90
2024-01-25T20:15:20.001Z,99.90
2024-01-25T20:21:14.946Z,99.90
2024-01-25T20:27:10.525Z,99.90
2024-01-25T20:33:05.227Z,99.90
2024-01-25T20:38:58.567Z,99.90
2024-01-25T20:44:53.152Z,99.90
2024-01-25T20:50:46.395Z,99.90
2024-01-25T20:56:40.446Z,99.90
2024-01-25T21:02:35.458Z,99.90
2024-01-25T21:08:29.173Z,99.90
2024-01-25T21:14:23.974Z,99.90
2024-01-25T21:20:18.931Z,99.90
2024-01-25T21:26:12.198Z,99.90
2024-01-25T21:32:06.096Z,99.90
2024-01-25T21:38:00.645Z,99.90
2024-01-25T21:43:54.565Z,99.90
2024-01-25T21:49:48.282Z,99.90
2024-01-25T21:55:43.156Z,99.90
2024-01-25T22:01:38.511Z,99.90
2024-01-25T22:07:32.089Z,99.90
2024-01-25T22:13:28.478Z,99.90
2024-01-25T22:19:23.443Z,99.90
2024-01-25T22:25:16.851Z,99.90
2024-01-25T22:31:11.729Z,99.90
2024-01-25T22:37:06.724Z,99.90
2024-01-25T22:43:00.141Z,99.90
2024-01-25T22:48:54.837Z,99.90
2024-01-25T22:54:48.295Z,99.90
2024-01-25T23:00:42.196Z,99.90
2024-01-25T23:06:37.100Z,99.90
2024-01-25T23:12:30.425Z,99.90
2024-01-25T23:18:23.716Z,99.90
2024-01-25T23:24:18.582Z,99.90
2024-01-25T23:30:12.447Z,99.90
2024-01-25T23:36:06.560Z,99.90
2024-01-25T23:42:01.161Z,99.90
2024-01-25T23:47:54.601Z,99.90
2024-01-25T23:53:48.043Z,99.90
2024-01-25T23:59:42.810Z,99.90
